Time;durP1;ratioP1;P1;durP2;ratioP2;P2;SDS_P1;SDS_P2;PMS_P1;PMS_P2;Temp;Humidity;BMP_temperature;BMP_pressure;BME280_temperature;BME280_humidity;BME280_pressure;Samples;Min_cycle;Max_cycle;Signal;HPM_P1;HPM_P2
2021/03/05 00:01:27;;;;;;;37.92;23.45;;;5.80;52.30;;;;;;4899325;29;20052;-74
2021/03/05 00:03:55;;;;;;;35.67;23.15;;;5.80;52.10;;;;;;4899359;29;20060;-75
2021/03/05 00:06:22;;;;;;;31.38;19.30;;;5.80;51.90;;;;;;4903897;29;20056;-74
2021/03/05 00:08:50;;;;;;;32.22;20.23;;;5.60;48.90;;;;;;4901535;29;20056;-74
2021/03/05 00:11:17;;;;;;;33.10;20.13;;;5.60;47.50;;;;;;4903457;29;20594;-75
2021/03/05 00:13:44;;;;;;;33.05;20.58;;;5.70;47.20;;;;;;4898829;29;20044;-75
2021/03/05 00:16:11;;;;;;;32.58;20.20;;;5.70;42.00;;;;;;4903122;29;20044;-74
2021/03/05 00:18:39;;;;;;;34.38;21.52;;;5.60;42.20;;;;;;4901333;29;20063;-75
2021/03/05 00:21:06;;;;;;;40.15;23.80;;;5.60;44.40;;;;;;4900035;29;20055;-77
2021/03/05 00:23:33;;;;;;;37.10;22.52;;;5.60;45.00;;;;;;4899227;29;20526;-75
2021/03/05 00:26:00;;;;;;;36.60;22.65;;;5.60;44.80;;;;;;4904583;29;20051;-77
2021/03/05 00:28:27;;;;;;;39.35;23.00;;;5.50;45.30;;;;;;4906485;29;20396;-77
2021/03/05 00:30:55;;;;;;;39.13;23.60;;;5.50;46.70;;;;;;4904022;29;20059;-77
2021/03/05 00:33:23;;;;;;;40.15;23.77;;;5.40;46.60;;;;;;4898476;29;20064;-77
2021/03/05 00:35:54;;;;;;;39.28;23.70;;;5.30;47.60;;;;;;4908879;29;20056;-77
2021/03/05 00:38:21;;;;;;;37.22;23.42;;;5.30;48.00;;;;;;4908027;29;20044;-76
2021/03/05 00:40:48;;;;;;;44.22;24.42;;;5.20;46.50;;;;;;4900982;29;20060;-76
2021/03/05 00:43:16;;;;;;;44.45;26.90;;;5.10;48.40;;;;;;4906825;29;20055;-76
2021/03/05 00:45:43;;;;;;;43.47;24.65;;;5.10;50.20;;;;;;4899065;29;20507;-76
2021/03/05 00:48:11;;;;;;;40.67;24.48;;;4.90;46.20;;;;;;4904597;29;20076;-76
2021/03/05 00:50:39;;;;;;;39.92;23.00;;;4.90;48.00;;;;;;4902453;29;20053;-75
2021/03/05 00:53:06;;;;;;;42.72;22.85;;;4.70;43.00;;;;;;4902540;29;20067;-75
2021/03/05 00:55:33;;;;;;;42.35;24.70;;;4.50;41.80;;;;;;4906185;29;20438;-75
2021/03/05 00:58:00;;;;;;;47.67;24.20;;;4.50;43.10;;;;;;4897198;29;20048;-74
2021/03/05 01:00:27;;;;;;;42.80;23.17;;;4.40;39.10;;;;;;4903464;29;20455;-75
2021/03/05 01:02:55;;;;;;;43.78;25.60;;;4.50;40.70;;;;;;4904721;29;20115;-74
2021/03/05 01:05:22;;;;;;;40.80;22.48;;;4.40;41.10;;;;;;4902554;29;20052;-74
2021/03/05 01:07:58;;;;;;;37.90;22.13;;;4.30;41.60;;;;;;4903030;29;20048;-73
2021/03/05 01:10:25;;;;;;;37.85;21.73;;;4.20;37.50;;;;;;4906334;29;20803;-76
2021/03/05 01:12:52;;;;;;;37.05;21.85;;;4.30;38.90;;;;;;4897628;29;20634;-74
2021/03/05 01:15:18;;;;;;;35.33;21.50;;;4.20;38.50;;;;;;4901974;29;20071;-75
2021/03/05 01:17:45;;;;;;;37.17;23.10;;;4.20;38.90;;;;;;4900103;29;20051;-74
2021/03/05 01:20:16;;;;;;;38.55;22.95;;;4.20;39.20;;;;;;4901126;29;20088;-75
2021/03/05 01:22:43;;;;;;;40.90;23.50;;;4.20;37.40;;;;;;4897888;29;20064;-74
2021/03/05 01:25:15;;;;;;;46.33;24.77;;;4.20;38.70;;;;;;4901829;29;20052;-75
2021/03/05 01:27:42;;;;;;;37.58;22.75;;;4.20;39.50;;;;;;4899684;29;20052;-75
2021/03/05 01:30:11;;;;;;;37.47;22.58;;;4.20;39.20;;;;;;4908344;29;20142;-74
2021/03/05 01:32:38;;;;;;;37.05;22.42;;;4.10;37.20;;;;;;4903260;29;20053;-75
2021/03/05 01:35:08;;;;;;;39.17;22.65;;;4.10;38.10;;;;;;4910182;29;20530;-75
2021/03/05 01:37:35;;;;;;;35.92;21.15;;;4.10;37.30;;;;;;4904490;29;20063;-75
2021/03/05 01:40:04;;;;;;;40.80;23.65;;;4.10;37.30;;;;;;4906641;29;20555;-74
2021/03/05 01:42:32;;;;;;;41.78;25.50;;;4.00;38.30;;;;;;4906384;29;20052;-73
2021/03/05 01:44:58;;;;;;;46.15;25.35;;;4.10;39.90;;;;;;4908745;29;20173;-74
2021/03/05 01:47:27;;;;;;;43.13;25.92;;;4.10;40.00;;;;;;4905768;29;20053;-74
2021/03/05 01:49:55;;;;;;;42.13;25.67;;;4.10;39.50;;;;;;4903737;29;20127;-75
2021/03/05 01:52:22;;;;;;;45.47;26.00;;;4.10;39.30;;;;;;4903976;29;20518;-76
2021/03/05 01:54:49;;;;;;;43.65;27.23;;;4.10;41.50;;;;;;4902223;29;20065;-75
2021/03/05 01:57:16;;;;;;;52.13;28.98;;;4.10;41.50;;;;;;4902118;29;20052;-75
2021/03/05 01:59:43;;;;;;;51.53;29.08;;;4.10;40.60;;;;;;4912193;29;20057;-73
2021/03/05 02:02:11;;;;;;;49.90;27.42;;;4.00;43.50;;;;;;4906382;29;20044;-73
2021/03/05 02:04:38;;;;;;;49.45;27.83;;;4.00;41.40;;;;;;4905319;29;20519;-75
2021/03/05 02:07:07;;;;;;;45.70;26.13;;;4.00;39.10;;;;;;4906208;29;20059;-75
2021/03/05 02:09:34;;;;;;;49.53;27.65;;;3.90;39.20;;;;;;4906592;29;20059;-75
2021/03/05 02:12:01;;;;;;;49.00;26.88;;;3.90;39.40;;;;;;4908896;29;20052;-75
2021/03/05 02:14:28;;;;;;;51.05;26.77;;;3.90;38.70;;;;;;4901334;29;20052;-74
2021/03/05 02:17:05;;;;;;;48.05;25.85;;;3.90;39.80;;;;;;4904416;29;20063;-75
2021/03/05 02:19:56;;;;;;;49.72;26.90;;;3.80;39.50;;;;;;4905925;29;20071;-75
2021/03/05 02:22:42;;;;;;;47.38;26.20;;;3.90;40.60;;;;;;4899931;29;20058;-76
2021/03/05 02:25:49;;;;;;;48.05;26.85;;;3.80;37.00;;;;;;4902392;29;20058;-74
2021/03/05 02:29:00;;;;;;;44.85;24.38;;;3.90;39.50;;;;;;4901955;29;20087;-75
2021/03/05 02:31:35;;;;;;;47.92;24.88;;;3.80;39.40;;;;;;4904743;29;20048;-75
2021/03/05 02:34:06;;;;;;;45.85;24.73;;;3.80;40.80;;;;;;4903170;29;20665;-76
2021/03/05 02:36:35;;;;;;;42.67;25.08;;;3.80;39.40;;;;;;4905895;29;20047;-76
2021/03/05 02:39:10;;;;;;;42.55;24.58;;;3.80;40.50;;;;;;4900506;29;20072;-76
2021/03/05 02:41:38;;;;;;;;;;;3.80;39.70;;;;;;4900859;29;20053;-75
2021/03/05 02:44:09;;;;;;;38.30;21.73;;;3.70;39.60;;;;;;4902923;29;20378;-76
2021/03/05 02:46:41;;;;;;;40.42;24.10;;;3.80;41.20;;;;;;4907657;29;20507;-76
2021/03/05 02:49:11;;;;;;;41.72;24.13;;;3.70;39.80;;;;;;4900645;29;20067;-75
2021/03/05 02:51:40;;;;;;;41.20;22.60;;;3.80;42.00;;;;;;4903222;29;20053;-75
2021/03/05 02:54:09;;;;;;;37.33;21.90;;;3.70;38.30;;;;;;4905015;29;20053;-75
2021/03/05 02:56:38;;;;;;;39.58;22.23;;;3.80;39.80;;;;;;4907877;29;20056;-77
2021/03/05 02:59:07;;;;;;;42.88;23.63;;;3.80;41.20;;;;;;4900431;29;20048;-76
2021/03/05 03:01:36;;;;;;;39.30;21.48;;;3.80;40.20;;;;;;4905574;29;20499;-75
2021/03/05 03:04:05;;;;;;;36.60;22.88;;;3.70;41.30;;;;;;4907073;29;20064;-75
2021/03/05 03:06:34;;;;;;;36.78;21.33;;;3.70;41.10;;;;;;4909859;29;20048;-75
2021/03/05 03:09:04;;;;;;;36.13;20.23;;;3.70;40.50;;;;;;4904115;29;20129;-74
2021/03/05 03:11:33;;;;;;;37.00;22.00;;;3.60;41.10;;;;;;4903660;29;20564;-75
2021/03/05 03:14:01;;;;;;;34.80;21.67;;;3.80;41.20;;;;;;4904472;29;20053;-75
2021/03/05 03:16:29;;;;;;;34.97;20.13;;;3.60;41.00;;;;;;4903863;29;20055;-76
2021/03/05 03:18:57;;;;;;;31.58;19.92;;;3.80;42.10;;;;;;4903918;29;20044;-76
2021/03/05 03:21:26;;;;;;;35.40;20.65;;;3.70;40.50;;;;;;4898146;29;20090;-76
2021/03/05 03:23:54;;;;;;;33.85;20.52;;;3.70;40.90;;;;;;4907711;29;20423;-75
2021/03/05 03:26:23;;;;;;;31.50;19.33;;;3.70;41.10;;;;;;4905252;29;20058;-76
2021/03/05 03:28:50;;;;;;;31.67;20.05;;;3.70;40.10;;;;;;4901267;29;20048;-75
2021/03/05 03:31:17;;;;;;;35.35;20.15;;;3.70;39.70;;;;;;4905055;29;20044;-76
2021/03/05 03:33:46;;;;;;;34.28;20.77;;;3.70;38.90;;;;;;4900998;29;20056;-75
2021/03/05 03:36:14;;;;;;;35.03;21.55;;;3.70;39.90;;;;;;4905080;29;20054;-76
2021/03/05 03:38:43;;;;;;;32.67;19.67;;;3.70;39.50;;;;;;4901073;29;20059;-75
2021/03/05 03:41:13;;;;;;;34.80;19.98;;;3.70;40.10;;;;;;4901081;29;20521;-76
2021/03/05 03:43:40;;;;;;;31.65;18.50;;;3.70;41.10;;;;;;4909344;29;20058;-76
2021/03/05 03:46:08;;;;;;;31.50;19.33;;;3.80;40.10;;;;;;4904126;29;20063;-76
2021/03/05 03:48:42;;;;;;;31.35;19.08;;;3.70;40.50;;;;;;4900420;29;20392;-75
2021/03/05 03:51:11;;;;;;;27.27;18.08;;;3.70;41.00;;;;;;4901143;29;20056;-76
2021/03/05 03:53:40;;;;;;;26.92;17.30;;;3.70;41.10;;;;;;4900026;29;20095;-76
2021/03/05 03:56:10;;;;;;;29.38;18.05;;;3.70;40.20;;;;;;4905789;29;20055;-75
2021/03/05 03:58:39;;;;;;;26.13;17.23;;;3.60;40.40;;;;;;4901324;29;20108;-76
2021/03/05 04:01:09;;;;;;;25.13;16.92;;;3.70;40.00;;;;;;4902021;29;20127;-76
2021/03/05 04:03:39;;;;;;;28.60;17.52;;;3.70;41.10;;;;;;4902717;29;20076;-75
2021/03/05 04:06:09;;;;;;;26.38;16.33;;;3.60;40.80;;;;;;4907471;29;20446;-76
2021/03/05 04:08:40;;;;;;;24.73;16.05;;;3.60;41.00;;;;;;4900037;29;20051;-80
2021/03/05 04:11:10;;;;;;;25.42;16.55;;;3.60;41.20;;;;;;4905728;29;20519;-76
2021/03/05 04:13:40;;;;;;;26.27;16.73;;;3.60;41.00;;;;;;4904574;29;20044;-76
2021/03/05 04:16:08;;;;;;;24.85;16.42;;;3.60;41.00;;;;;;4903808;29;20135;-76
2021/03/05 04:18:37;;;;;;;28.05;17.88;;;3.60;40.90;;;;;;4898829;29;20051;-75
2021/03/05 04:21:07;;;;;;;26.70;16.15;;;3.60;40.50;;;;;;4901315;29;20060;-75
2021/03/05 04:23:36;;;;;;;25.90;16.92;;;3.60;40.50;;;;;;4906057;29;20048;-76
2021/03/05 04:26:04;;;;;;;29.40;18.15;;;3.60;40.90;;;;;;4903421;29;20048;-75
2021/03/05 04:28:32;;;;;;;27.33;16.92;;;3.60;40.50;;;;;;4899439;29;20048;-78
2021/03/05 04:30:59;;;;;;;27.35;17.63;;;3.60;41.10;;;;;;4903267;29;20107;-76
2021/03/05 04:33:26;;;;;;;29.23;17.77;;;3.70;41.10;;;;;;4903240;29;20116;-76
2021/03/05 04:35:54;;;;;;;25.80;16.67;;;3.70;41.10;;;;;;4902593;29;20056;-77
2021/03/05 04:38:21;;;;;;;26.92;16.13;;;3.60;39.30;;;;;;4902344;29;20415;-75
2021/03/05 04:40:49;;;;;;;25.52;15.95;;;3.60;40.80;;;;;;4902628;29;20062;-76
2021/03/05 04:43:16;;;;;;;24.80;15.93;;;3.60;39.70;;;;;;4903904;29;20139;-77
2021/03/05 04:45:44;;;;;;;24.33;15.27;;;3.60;39.90;;;;;;4904494;29;20546;-76
2021/03/05 04:48:12;;;;;;;23.40;15.52;;;3.60;39.80;;;;;;4904255;29;20099;-75
2021/03/05 04:50:40;;;;;;;26.33;16.35;;;3.60;38.00;;;;;;4904951;29;20652;-75
2021/03/05 04:53:08;;;;;;;22.90;15.25;;;3.60;39.40;;;;;;4905412;29;20064;-76
2021/03/05 04:55:35;;;;;;;22.70;14.13;;;3.60;40.00;;;;;;4901652;29;20052;-77
2021/03/05 04:58:02;;;;;;;24.48;14.57;;;3.60;40.10;;;;;;4900749;29;20060;-76
2021/03/05 05:00:30;;;;;;;21.23;13.70;;;3.50;38.30;;;;;;4899028;29;20047;-77
2021/03/05 05:02:58;;;;;;;23.98;14.88;;;3.50;38.80;;;;;;4908307;29;20048;-76
2021/03/05 05:05:27;;;;;;;24.05;15.00;;;3.50;38.50;;;;;;4912179;29;20059;-77
2021/03/05 05:07:55;;;;;;;22.45;13.40;;;3.60;39.50;;;;;;4902993;29;20149;-77
2021/03/05 05:10:23;;;;;;;25.52;15.52;;;3.60;38.20;;;;;;4911574;29;20233;-77
2021/03/05 05:12:52;;;;;;;23.17;13.10;;;3.60;39.20;;;;;;4913139;29;20044;-76
2021/03/05 05:15:20;;;;;;;23.10;14.43;;;3.60;38.20;;;;;;4908543;29;20076;-77
2021/03/05 05:17:47;;;;;;;20.67;12.32;;;3.50;36.80;;;;;;4907150;29;20130;-78
2021/03/05 05:20:17;;;;;;;23.88;13.50;;;3.50;37.70;;;;;;4911936;29;20048;-77
2021/03/05 05:22:44;;;;;;;24.00;14.10;;;3.50;35.60;;;;;;4912175;29;20052;-77
2021/03/05 05:25:12;;;;;;;21.95;13.15;;;3.50;37.30;;;;;;4907220;29;20052;-76
2021/03/05 05:27:39;;;;;;;21.95;13.68;;;3.50;37.60;;;;;;4909061;29;20052;-76
2021/03/05 05:30:07;;;;;;;22.30;13.20;;;3.40;37.30;;;;;;4903536;29;20062;-77
2021/03/05 05:32:34;;;;;;;23.33;13.70;;;3.50;36.80;;;;;;4901892;29;20060;-76
2021/03/05 05:35:02;;;;;;;21.92;13.68;;;3.50;36.90;;;;;;4907145;29;20416;-77
2021/03/05 05:37:30;;;;;;;22.90;12.10;;;3.50;36.80;;;;;;4911477;29;20056;-76
2021/03/05 05:39:57;;;;;;;23.90;13.45;;;3.40;36.00;;;;;;4908044;29;20595;-79
2021/03/05 05:42:24;;;;;;;25.55;13.52;;;3.50;37.50;;;;;;4906638;29;20518;-77
2021/03/05 05:44:52;;;;;;;22.20;12.27;;;3.50;36.80;;;;;;4907349;29;20052;-77
2021/03/05 05:47:22;;;;;;;25.58;13.80;;;3.50;35.40;;;;;;4900712;29;20064;-78
2021/03/05 05:49:52;;;;;;;22.77;13.25;;;3.50;35.20;;;;;;4905711;29;20452;-78
2021/03/05 05:52:25;;;;;;;25.23;13.10;;;3.50;34.50;;;;;;4906710;29;20060;-77
2021/03/05 05:54:55;;;;;;;21.33;12.48;;;3.50;35.00;;;;;;4898866;29;20464;-76
2021/03/05 05:57:23;;;;;;;23.38;12.48;;;3.50;32.90;;;;;;4902620;29;20139;-76
2021/03/05 05:59:52;;;;;;;25.73;14.10;;;3.50;34.40;;;;;;4904872;29;20051;-75
2021/03/05 06:02:20;;;;;;;23.15;13.68;;;3.40;33.50;;;;;;4908102;29;20536;-77
2021/03/05 06:04:48;;;;;;;25.48;13.80;;;3.50;34.00;;;;;;4906906;29;20170;-75
2021/03/05 06:07:17;;;;;;;22.20;13.30;;;3.50;34.70;;;;;;4903457;29;20079;-76
2021/03/05 06:10:06;;;;;;;20.52;11.75;;;3.50;34.10;;;;;;4905544;29;20518;-78
2021/03/05 06:12:33;;;;;;;22.33;12.93;;;3.50;33.80;;;;;;4904658;29;20559;-77
2021/03/05 06:15:00;;;;;;;25.83;13.52;;;3.50;34.70;;;;;;4910858;29;20419;-77
2021/03/05 06:17:44;;;;;;;23.98;13.65;;;3.40;34.90;;;;;;4902921;29;20060;-79
2021/03/05 06:20:14;;;;;;;26.45;14.32;;;3.50;36.20;;;;;;4902714;29;20148;-76
2021/03/05 06:22:41;;;;;;;25.13;13.43;;;3.40;35.70;;;;;;4903284;29;20083;-78
2021/03/05 06:25:11;;;;;;;25.98;13.95;;;3.40;35.40;;;;;;4907328;29;20070;-78
2021/03/05 06:27:39;;;;;;;23.58;13.57;;;3.40;35.70;;;;;;4903453;29;20108;-77
2021/03/05 06:30:08;;;;;;;23.58;12.90;;;3.40;34.70;;;;;;4909518;29;20068;-77
2021/03/05 06:32:39;;;;;;;23.88;13.25;;;3.40;35.20;;;;;;4901356;29;20131;-78
2021/03/05 06:35:08;;;;;;;26.30;14.07;;;3.40;36.60;;;;;;4906311;29;20056;-77
2021/03/05 06:37:46;;;;;;;27.80;14.88;;;3.40;36.30;;;;;;4908977;29;20139;-78
2021/03/05 06:40:30;;;;;;;25.23;15.00;;;3.30;36.00;;;;;;4901805;29;20068;-76
2021/03/05 06:42:58;;;;;;;24.42;14.02;;;3.30;36.00;;;;;;4909682;29;20058;-77
2021/03/05 06:45:34;;;;;;;27.98;15.13;;;3.30;36.70;;;;;;4905112;29;20074;-76
2021/03/05 06:48:04;;;;;;;31.35;15.43;;;3.40;37.40;;;;;;4904888;29;20625;-77
2021/03/05 06:50:33;;;;;;;29.75;14.68;;;3.40;36.70;;;;;;4904522;29;20101;-75
2021/03/05 06:53:00;;;;;;;27.40;14.98;;;3.40;35.80;;;;;;4909402;29;20123;-78
2021/03/05 06:55:27;;;;;;;27.05;14.32;;;3.40;36.20;;;;;;4905516;29;20108;-75
2021/03/05 06:57:55;;;;;;;26.98;14.85;;;3.40;35.20;;;;;;4903114;29;20491;-76
2021/03/05 07:00:23;;;;;;;24.23;14.02;;;3.40;34.50;;;;;;4904767;29;20062;-76
2021/03/05 07:02:51;;;;;;;28.73;14.60;;;3.30;33.90;;;;;;4903817;29;20076;-77
2021/03/05 07:05:48;;;;;;;26.13;14.48;;;3.40;36.20;;;;;;4902857;29;20064;-77
2021/03/05 07:08:37;;;;;;;26.10;14.25;;;3.40;36.70;;;;;;4903465;29;20550;-76
2021/03/05 07:11:05;;;;;;;27.70;14.52;;;3.50;35.40;;;;;;4903123;29;20067;-76
2021/03/05 07:13:48;;;;;;;25.23;13.80;;;3.40;35.70;;;;;;4904615;29;20067;-76
2021/03/05 07:16:15;;;;;;;27.13;14.70;;;3.50;35.50;;;;;;4900130;29;20064;-77
2021/03/05 07:18:42;;;;;;;29.73;15.73;;;3.60;36.40;;;;;;4902077;29;20115;-76
2021/03/05 07:21:10;;;;;;;29.63;15.57;;;3.70;35.30;;;;;;4901002;29;20072;-76
2021/03/05 07:23:38;;;;;;;27.02;14.73;;;3.50;34.40;;;;;;4904891;29;20048;-77
2021/03/05 07:26:07;;;;;;;25.60;14.10;;;3.50;34.00;;;;;;4904800;29;20056;-77
2021/03/05 07:28:36;;;;;;;24.88;13.77;;;3.50;33.80;;;;;;4900883;29;20054;-76
2021/03/05 07:31:03;;;;;;;27.02;15.00;;;3.60;34.00;;;;;;4901365;29;20139;-76
2021/03/05 07:33:38;;;;;;;28.63;14.48;;;3.60;33.70;;;;;;4903761;29;20063;-76
2021/03/05 07:36:09;;;;;;;27.27;14.00;;;3.60;33.40;;;;;;4909545;29;20055;-76
2021/03/05 07:38:40;;;;;;;28.40;14.48;;;3.50;31.40;;;;;;4899679;29;20055;-77
2021/03/05 07:41:10;;;;;;;23.77;13.18;;;3.60;32.10;;;;;;4905043;29;20218;-78
2021/03/05 07:43:38;;;;;;;25.48;13.57;;;3.60;30.60;;;;;;4904039;29;20056;-77
2021/03/05 07:46:05;;;;;;;28.55;14.55;;;3.60;31.00;;;;;;4897459;29;20056;-77
2021/03/05 07:48:34;;;;;;;29.55;14.52;;;3.70;31.80;;;;;;4904434;29;20070;-78
2021/03/05 07:51:01;;;;;;;26.35;14.77;;;3.70;32.80;;;;;;4907259;29;20056;-77
2021/03/05 07:53:28;;;;;;;27.50;13.70;;;3.80;32.30;;;;;;4902293;29;20091;-78
2021/03/05 07:55:56;;;;;;;23.65;13.00;;;3.80;31.80;;;;;;4906747;29;20056;-77
2021/03/05 07:58:46;;;;;;;24.23;13.88;;;3.60;31.00;;;;;;4905225;29;20052;-78
2021/03/05 08:01:13;;;;;;;22.17;13.77;;;3.50;32.60;;;;;;4896207;29;20056;-77
2021/03/05 08:03:52;;;;;;;27.90;13.73;;;3.50;32.20;;;;;;4902170;29;20084;-78
2021/03/05 08:06:27;;;;;;;28.33;14.20;;;3.50;33.10;;;;;;4901968;29;20419;-78
2021/03/05 08:09:08;;;;;;;27.48;14.60;;;3.50;36.70;;;;;;4898912;29;20056;-76
2021/03/05 08:11:37;;;;;;;26.92;14.13;;;3.40;36.10;;;;;;4897827;29;20060;-77
2021/03/05 08:14:26;;;;;;;27.92;14.30;;;3.40;37.70;;;;;;4906401;29;20056;-75
2021/03/05 08:16:53;;;;;;;28.30;14.77;;;3.40;39.00;;;;;;4897511;29;20057;-78
2021/03/05 08:19:51;;;;;;;28.63;14.32;;;3.50;39.30;;;;;;4895240;29;20052;-79
2021/03/05 08:22:20;;;;;;;28.38;13.20;;;3.40;38.60;;;;;;4909665;29;20203;-77
2021/03/05 08:24:49;;;;;;;25.45;13.32;;;3.40;39.10;;;;;;4910542;29;20059;-77
2021/03/05 08:27:35;;;;;;;28.60;13.98;;;3.40;38.70;;;;;;4906332;29;20059;-78
2021/03/05 08:30:20;;;;;;;30.75;14.05;;;3.40;36.20;;;;;;4915053;29;20052;-78
2021/03/05 08:32:58;;;;;;;26.25;13.10;;;3.40;35.60;;;;;;4903697;29;20084;-78
2021/03/05 08:35:45;;;;;;;28.05;13.07;;;3.50;33.90;;;;;;4908369;29;20052;-78
2021/03/05 08:38:30;;;;;;;21.52;11.63;;;3.60;33.20;;;;;;4903781;29;20514;-77
2021/03/05 08:41:03;;;;;;;22.60;12.30;;;3.60;30.00;;;;;;4902017;29;21355;-77
2021/03/05 08:43:32;;;;;;;23.17;12.95;;;3.60;30.00;;;;;;4906344;29;20061;-76
2021/03/05 08:46:03;;;;;;;24.77;13.63;;;3.70;30.90;;;;;;4904762;29;20099;-77
2021/03/05 08:48:33;;;;;;;20.33;12.32;;;3.60;28.90;;;;;;4903685;29;20056;-76
2021/03/05 08:51:02;;;;;;;22.40;11.82;;;3.70;29.40;;;;;;4905527;29;20044;-77
2021/03/05 08:53:29;;;;;;;25.58;12.73;;;3.70;28.90;;;;;;4905097;29;20086;-76
2021/03/05 08:55:56;;;;;;;24.38;12.60;;;3.80;29.00;;;;;;4906159;29;20716;-76
2021/03/05 08:58:23;;;;;;;27.52;12.38;;;3.70;29.00;;;;;;4906166;29;20063;-76
2021/03/05 09:00:50;;;;;;;24.05;12.23;;;3.70;28.90;;;;;;4907028;29;20068;-76
2021/03/05 09:03:19;;;;;;;24.90;11.18;;;3.90;29.10;;;;;;4902752;29;20056;-76
2021/03/05 09:05:48;;;;;;;25.63;11.65;;;3.90;28.70;;;;;;4901357;29;20049;-77
2021/03/05 09:08:16;;;;;;;24.25;12.77;;;3.90;28.40;;;;;;4907830;29;20054;-77
2021/03/05 09:10:45;;;;;;;23.38;11.82;;;4.10;29.00;;;;;;4905922;29;20048;-77
2021/03/05 09:13:15;;;;;;;22.75;11.10;;;4.00;26.20;;;;;;4904687;29;20148;-78
2021/03/05 09:15:43;;;;;;;22.63;12.15;;;3.90;27.90;;;;;;4906064;29;20052;-77
2021/03/05 09:18:12;;;;;;;21.15;10.77;;;3.90;26.30;;;;;;4904809;29;20052;-77
2021/03/05 09:20:44;;;;;;;22.70;11.90;;;3.90;27.60;;;;;;4906575;29;20056;-77
2021/03/05 09:23:16;;;;;;;22.30;12.23;;;3.90;27.70;;;;;;4909108;29;20131;-77
2021/03/05 09:25:51;;;;;;;20.48;10.80;;;4.00;26.70;;;;;;4909439;29;20481;-77
2021/03/05 09:28:20;;;;;;;19.80;10.98;;;3.90;26.40;;;;;;4904239;29;20415;-78
2021/03/05 09:30:53;;;;;;;19.80;11.05;;;3.80;25.10;;;;;;4908645;29;20661;-78
2021/03/05 09:33:33;;;;;;;20.90;11.38;;;3.80;26.00;;;;;;4906258;29;20052;-78
2021/03/05 09:36:08;;;;;;;19.10;11.18;;;3.90;25.80;;;;;;4909022;29;20099;-77
2021/03/05 09:38:36;;;;;;;17.40;9.97;;;4.00;25.30;;;;;;4904345;29;20066;-78
2021/03/05 09:41:15;;;;;;;20.48;10.68;;;3.80;24.60;;;;;;4910877;29;20870;-78
2021/03/05 09:43:43;;;;;;;21.52;10.40;;;3.80;26.40;;;;;;4896722;29;20059;-78
2021/03/05 09:46:21;;;;;;;18.60;9.82;;;3.90;24.30;;;;;;4912563;29;20052;-79
2021/03/05 09:48:49;;;;;;;18.73;10.98;;;4.00;22.40;;;;;;4894247;29;20071;-78
2021/03/05 09:51:17;;;;;;;19.63;10.50;;;4.10;24.20;;;;;;4910277;29;20115;-78
2021/03/05 09:53:53;;;;;;;24.63;11.57;;;4.20;22.60;;;;;;4902470;29;20059;-79
2021/03/05 09:56:23;;;;;;;19.60;9.80;;;4.10;22.50;;;;;;4908391;29;20052;-78
2021/03/05 09:58:53;;;;;;;21.27;11.38;;;4.30;23.80;;;;;;4906343;29;20140;-78
2021/03/05 10:01:19;;;;;;;24.58;10.90;;;4.10;22.80;;;;;;4903694;29;20052;-79
2021/03/05 10:03:55;;;;;;;22.83;11.25;;;4.20;23.80;;;;;;4906643;29;20076;-77
2021/03/05 10:06:23;;;;;;;20.65;10.48;;;4.20;20.70;;;;;;4904431;29;20052;-79
2021/03/05 10:08:59;;;;;;;19.40;9.88;;;4.40;22.00;;;;;;4904221;29;20503;-78
2021/03/05 10:11:34;;;;;;;17.73;10.68;;;4.40;17.50;;;;;;4910939;29;20201;-77
2021/03/05 10:14:04;;;;;;;18.02;10.52;;;4.40;17.60;;;;;;4915880;29;20052;-78
2021/03/05 10:16:32;;;;;;;18.63;10.15;;;4.60;16.80;;;;;;4908266;29;20054;-77
2021/03/05 10:19:08;;;;;;;23.02;10.98;;;4.60;17.20;;;;;;4903962;29;20590;-77
2021/03/05 10:21:42;;;;;;;20.70;9.95;;;4.50;15.80;;;;;;4902065;29;20554;-77
2021/03/05 10:24:10;;;;;;;21.45;10.77;;;4.50;17.40;;;;;;4903053;29;20525;-76
2021/03/05 10:26:37;;;;;;;17.83;9.95;;;4.80;16.50;;;;;;4906360;29;20074;-77
2021/03/05 10:29:06;;;;;;;21.73;10.25;;;4.90;14.80;;;;;;4902817;29;20418;-77
2021/03/05 10:31:43;;;;;;;18.98;10.27;;;4.70;14.70;;;;;;4901928;29;20048;-76
2021/03/05 10:34:25;;;;;;;19.00;10.52;;;4.60;15.70;;;;;;4907014;29;20048;-77
2021/03/05 10:36:55;;;;;;;23.63;10.75;;;4.70;15.90;;;;;;4905481;29;20059;-78
2021/03/05 10:39:23;;;;;;;22.25;10.25;;;4.70;15.90;;;;;;4906389;29;20048;-77
2021/03/05 10:41:51;;;;;;;17.30;10.02;;;4.60;15.70;;;;;;4899898;29;20429;-78
2021/03/05 10:44:18;;;;;;;20.38;10.32;;;4.40;13.40;;;;;;4908276;29;20090;-78
2021/03/05 10:46:45;;;;;;;23.40;9.23;;;4.50;15.30;;;;;;4912396;29;20751;-79
2021/03/05 10:49:13;;;;;;;21.25;10.48;;;4.50;14.70;;;;;;4900578;29;20052;-77
2021/03/05 10:51:40;;;;;;;21.00;11.05;;;4.60;15.90;;;;;;4904942;29;20060;-79
2021/03/05 10:54:08;;;;;;;20.77;10.23;;;4.60;16.30;;;;;;4905413;29;20147;-79
2021/03/05 10:56:35;;;;;;;20.40;9.75;;;4.60;14.60;;;;;;4906527;29;20052;-78
2021/03/05 10:59:02;;;;;;;20.52;9.90;;;4.80;11.80;;;;;;4901267;29;20139;-79
2021/03/05 11:01:29;;;;;;;18.35;9.73;;;4.80;13.20;;;;;;4905094;29;20078;-79
2021/03/05 11:03:56;;;;;;;17.92;9.82;;;4.90;11.00;;;;;;4905177;29;20056;-76
2021/03/05 11:06:23;;;;;;;21.25;9.95;;;4.80;10.00;;;;;;4902926;29;20052;-78
2021/03/05 11:08:50;;;;;;;17.42;10.10;;;4.70;10.30;;;;;;4901479;29;20052;-78
2021/03/05 11:11:18;;;;;;;22.27;10.98;;;4.80;11.20;;;;;;4905386;29;20052;-77
2021/03/05 11:13:52;;;;;;;19.60;10.25;;;4.70;11.50;;;;;;4900497;29;20052;-77
2021/03/05 11:16:18;;;;;;;19.80;10.95;;;4.80;10.70;;;;;;4907370;29;20082;-77
2021/03/05 11:18:46;;;;;;;20.00;10.48;;;5.10;9.60;;;;;;4899963;29;20056;-76
2021/03/05 11:21:12;;;;;;;15.82;9.63;;;5.00;9.00;;;;;;4902663;29;20063;-77
2021/03/05 11:23:39;;;;;;;18.92;9.85;;;5.00;7.50;;;;;;4900670;29;20059;-78
2021/03/05 11:26:06;;;;;;;20.08;9.75;;;5.30;7.30;;;;;;4907204;29;20136;-79
2021/03/05 11:28:34;;;;;;;21.75;10.10;;;4.90;8.90;;;;;;4903104;29;20082;-79
2021/03/05 11:31:01;;;;;;;17.20;10.35;;;5.10;8.60;;;;;;4903041;29;20059;-80
2021/03/05 11:33:29;;;;;;;17.90;9.95;;;5.00;9.20;;;;;;4903393;29;20545;-78
2021/03/05 11:35:57;;;;;;;20.30;9.73;;;5.10;9.00;;;;;;4902896;29;20480;-77
2021/03/05 11:38:24;;;;;;;16.88;8.95;;;5.20;9.10;;;;;;4905215;29;20056;-76
2021/03/05 11:40:51;;;;;;;18.00;10.15;;;5.20;7.30;;;;;;4903499;29;21453;-77
2021/03/05 11:43:19;;;;;;;23.02;9.65;;;5.00;7.10;;;;;;4901981;29;20419;-77
2021/03/05 11:45:46;;;;;;;22.65;10.52;;;5.10;8.00;;;;;;4904061;29;20139;-79
2021/03/05 11:48:14;;;;;;;17.80;9.85;;;5.30;7.90;;;;;;4902651;29;20138;-78
2021/03/05 11:50:41;;;;;;;18.67;10.05;;;5.40;3.90;;;;;;4904240;29;20062;-79
2021/03/05 11:53:08;;;;;;;19.65;9.93;;;5.20;5.90;;;;;;4898343;29;20140;-79
2021/03/05 11:55:36;;;;;;;21.50;11.00;;;5.30;4.90;;;;;;4906992;29;20535;-79
2021/03/05 11:58:03;;;;;;;17.70;9.60;;;5.30;6.00;;;;;;4907493;29;20049;-78
2021/03/05 12:00:30;;;;;;;19.63;10.32;;;5.40;6.30;;;;;;4902971;29;20079;-79
2021/03/05 12:02:58;;;;;;;16.42;9.15;;;5.30;5.00;;;;;;4904988;29;20136;-78
2021/03/05 12:05:25;;;;;;;18.27;9.75;;;5.20;5.70;;;;;;4904047;29;20048;-80
2021/03/05 12:07:52;;;;;;;15.98;8.48;;;5.40;3.60;;;;;;4901364;29;20503;-77
2021/03/05 12:10:19;;;;;;;22.25;10.55;;;5.20;3.90;;;;;;4899294;29;20056;-79
2021/03/05 12:12:46;;;;;;;17.20;9.95;;;5.50;5.10;;;;;;4906720;29;20052;-79
2021/03/05 12:15:14;;;;;;;17.83;9.77;;;5.50;4.20;;;;;;4898224;29;20472;-79
2021/03/05 12:17:41;;;;;;;20.10;10.82;;;5.40;3.60;;;;;;4901242;29;20048;-78
2021/03/05 12:20:10;;;;;;;18.25;9.77;;;5.50;4.40;;;;;;4907892;29;20086;-79
2021/03/05 12:22:37;;;;;;;18.92;10.15;;;5.70;4.30;;;;;;4902694;29;20555;-78
2021/03/05 12:25:06;;;;;;;16.80;9.63;;;5.70;2.90;;;;;;4906812;29;20052;-78
2021/03/05 12:27:33;;;;;;;18.98;10.45;;;5.40;1.80;;;;;;4903014;29;21011;-80
2021/03/05 12:30:01;;;;;;;16.95;8.70;;;5.70;2.10;;;;;;4900974;29;20657;-76
2021/03/05 12:32:28;;;;;;;15.85;9.48;;;5.60;1.00;;;;;;4900553;29;20052;-77
2021/03/05 12:34:55;;;;;;;20.55;9.80;;;5.70;1.00;;;;;;4904780;29;20055;-78
2021/03/05 12:37:23;;;;;;;18.67;9.68;;;5.60;2.00;;;;;;4897268;29;20095;-79
2021/03/05 12:39:50;;;;;;;21.17;10.50;;;5.50;1.90;;;;;;4906300;29;20119;-77
2021/03/05 12:42:17;;;;;;;18.77;9.52;;;5.40;2.60;;;;;;4900716;29;20056;-78
2021/03/05 12:45:00;;;;;;;19.92;9.73;;;5.40;3.60;;;;;;4900023;29;20119;-76
2021/03/05 12:47:27;;;;;;;16.98;9.75;;;5.60;2.90;;;;;;4901401;29;20408;-77
2021/03/05 12:49:54;;;;;;;23.80;10.30;;;5.50;2.00;;;;;;4902364;29;20055;-78
2021/03/05 12:52:23;;;;;;;18.88;10.18;;;5.60;3.30;;;;;;4901226;29;20053;-79
2021/03/05 12:54:52;;;;;;;22.30;10.55;;;5.50;3.70;;;;;;4898803;29;20049;-78